Terminal Aerodrome Forecast
Issued by NWS

Home | Current Version | Previous Version | Graphics & Text | Print | Product List | Glossary On
Versions: 1 2 3 4 5 6 7 8 9 10 11 12 13 14
000
FTUS43 KTOP 271720
TAFMHK
TAF
KMHK 271720Z 2718/2818 17013G23KT P6SM SCT150
     FM280500 19011KT P6SM VCTS SCT060CB BKN150
      TEMPO 2809/2813 VRB15G25KT 3SM TSRA BKN030CB=

USA.gov is the U.S. government's official web portal to all federal, state and local government web resources and services.